createdAt,value
2022-11-26T00:02:26.044Z,91.22
2022-11-26T00:04:55.683Z,81.35
2022-11-26T00:07:29.987Z,78.03
2022-11-26T00:09:59.507Z,77.30
2022-11-26T00:12:31.949Z,83.88
2022-11-26T00:15:16.517Z,82.70
2022-11-26T00:17:43.826Z,84.28
2022-11-26T00:20:11.188Z,82.18
2022-11-26T00:22:49.054Z,90.75
2022-11-26T00:25:25.876Z,84.50
2022-11-26T00:27:56.144Z,86.88
2022-11-26T00:30:27.449Z,81.97
2022-11-26T00:32:56.235Z,84.50
2022-11-26T00:35:24.457Z,88.85
2022-11-26T00:37:58.052Z,83.50
2022-11-26T00:40:33.814Z,77.38
2022-11-26T00:43:02.025Z,84.63
2022-11-26T00:45:31.419Z,71.75
2022-11-26T00:47:58.824Z,83.35
2022-11-26T00:50:32.994Z,84.43
2022-11-26T00:53:00.206Z,78.80
2022-11-26T00:55:39.513Z,81.07
2022-11-26T00:58:26.549Z,88.93
2022-11-26T01:00:56.964Z,83.30
2022-11-26T01:03:24.615Z,81.75
2022-11-26T01:05:55.770Z,83.75
2022-11-26T01:08:35.098Z,85.03
2022-11-26T01:11:05.726Z,78.70
2022-11-26T01:13:33.548Z,79.32
2022-11-26T01:16:01.615Z,77.28
2022-11-26T01:18:36.128Z,73.63
2022-11-26T01:21:03.357Z,81.40
2022-11-26T01:23:30.528Z,81.78
2022-11-26T01:25:58.996Z,84.03
2022-11-26T01:28:28.603Z,84.68
2022-11-26T01:30:55.760Z,81.85
2022-11-26T01:33:22.990Z,78.55
2022-11-26T01:35:50.185Z,78.35
2022-11-26T01:38:17.436Z,76.10
2022-11-26T01:40:58.864Z,79.47
2022-11-26T01:43:45.372Z,83.78
2022-11-26T01:46:19.756Z,73.75
2022-11-26T01:48:49.658Z,79.47
2022-11-26T01:51:29.217Z,78.80
2022-11-26T01:54:00.785Z,80.72
2022-11-26T01:56:39.316Z,77.75
2022-11-26T01:59:32.672Z,76.63
2022-11-26T02:02:00.876Z,76.43
2022-11-26T02:04:38.660Z,78.95
2022-11-26T02:07:06.585Z,78.40
2022-11-26T02:09:34.065Z,80.35
2022-11-26T02:12:01.518Z,77.57
2022-11-26T02:14:42.547Z,74.90
2022-11-26T02:17:24.588Z,76.13
2022-11-26T02:20:50.957Z,80.28
2022-11-26T02:24:04.188Z,72.72
2022-11-26T02:27:22.910Z,71.68
2022-11-26T02:30:12.252Z,71.90
2022-11-26T02:33:30.863Z,74.30
2022-11-26T02:36:09.947Z,72.57
2022-11-26T02:38:39.426Z,76.97
2022-11-26T02:41:06.705Z,76.72
2022-11-26T02:43:36.374Z,88.63
2022-11-26T02:46:12.964Z,80.07
2022-11-26T02:48:46.952Z,83.07
2022-11-26T02:51:29.475Z,82.97
2022-11-26T02:54:00.733Z,87.18
2022-11-26T02:56:29.978Z,86.15
2022-11-26T02:58:58.077Z,85.45
2022-11-26T03:01:37.432Z,81.00
2022-11-26T03:04:17.072Z,81.35
2022-11-26T03:06:46.056Z,78.25
2022-11-26T03:09:16.461Z,77.82
2022-11-26T03:11:44.686Z,85.40
2022-11-26T03:14:12.090Z,80.45
2022-11-26T03:16:39.245Z,88.20
2022-11-26T03:19:06.496Z,101.47
2022-11-26T03:21:34.278Z,86.05
2022-11-26T03:24:01.497Z,88.53
2022-11-26T03:26:28.606Z,90.57
2022-11-26T03:28:55.744Z,95.60
2022-11-26T03:31:22.978Z,93.38
2022-11-26T03:33:50.207Z,92.30
2022-11-26T03:36:17.352Z,86.82
2022-11-26T03:38:44.525Z,87.72
2022-11-26T03:41:11.661Z,86.57
2022-11-26T03:43:38.832Z,86.90
2022-11-26T03:46:06.093Z,88.32
2022-11-26T03:48:33.346Z,88.22
2022-11-26T03:51:00.565Z,84.43
2022-11-26T03:53:27.937Z,80.88
2022-11-26T03:55:55.077Z,86.07
2022-11-26T03:58:22.279Z,81.72
2022-11-26T04:00:49.776Z,86.28
2022-11-26T04:03:17.017Z,93.60
2022-11-26T04:05:44.325Z,101.95
2022-11-26T04:08:11.696Z,97.57
2022-11-26T04:10:38.825Z,87.53
2022-11-26T04:13:06.066Z,87.30
2022-11-26T04:15:34.377Z,89.45
2022-11-26T04:18:01.644Z,96.53
2022-11-26T04:20:29.003Z,111.65
2022-11-26T04:22:56.219Z,103.82
2022-11-26T04:25:23.460Z,99.70
2022-11-26T04:27:52.516Z,98.78
2022-11-26T04:30:19.865Z,96.72
2022-11-26T04:32:47.056Z,101.90
2022-11-26T04:35:14.220Z,90.82
2022-11-26T04:37:42.000Z,99.78
2022-11-26T04:40:10.465Z,97.07
2022-11-26T04:42:37.680Z,95.90
2022-11-26T04:45:05.881Z,105.57
2022-11-26T04:47:33.188Z,98.68
2022-11-26T04:50:00.529Z,100.18
2022-11-26T04:52:27.915Z,94.82
2022-11-26T04:54:55.096Z,93.43
2022-11-26T04:57:22.268Z,91.10
2022-11-26T04:59:53.875Z,94.35
2022-11-26T05:02:21.237Z,88.80
2022-11-26T05:04:48.677Z,95.07
2022-11-26T05:07:15.953Z,90.13
2022-11-26T05:09:43.442Z,98.05
2022-11-26T05:12:12.526Z,90.82
2022-11-26T05:14:40.125Z,82.40
2022-11-26T05:17:07.637Z,86.88
2022-11-26T05:19:34.756Z,83.10
2022-11-26T05:22:02.046Z,81.38
2022-11-26T05:24:30.201Z,78.85
2022-11-26T05:26:57.551Z,73.45
2022-11-26T05:29:25.945Z,72.10
2022-11-26T05:31:53.447Z,70.90
2022-11-26T05:34:21.144Z,70.55
2022-11-26T05:36:48.562Z,69.00
2022-11-26T05:39:16.564Z,72.13
2022-11-26T05:41:43.782Z,65.55
2022-11-26T05:44:11.192Z,110.38
2022-11-26T05:46:42.593Z,52.38
2022-11-26T05:49:10.406Z,58.08
2022-11-26T05:51:37.612Z,95.65
2022-11-26T05:54:05.032Z,60.65
2022-11-26T05:56:32.188Z,66.40
2022-11-26T05:58:59.321Z,96.68
2022-11-26T06:01:26.482Z,72.70
2022-11-26T06:03:53.699Z,77.00
2022-11-26T06:06:20.974Z,73.47
2022-11-26T06:08:48.224Z,85.88
2022-11-26T06:11:15.514Z,92.55
2022-11-26T06:13:42.700Z,72.25
2022-11-26T06:16:10.332Z,73.60
2022-11-26T06:18:38.657Z,68.95
2022-11-26T06:21:08.004Z,64.85
2022-11-26T06:23:35.400Z,67.57
2022-11-26T06:26:12.514Z,157.02
2022-11-26T06:28:40.188Z,141.80
2022-11-26T06:31:10.272Z,82.07
2022-11-26T06:33:37.986Z,96.75
2022-11-26T06:36:06.367Z,75.68
2022-11-26T06:38:33.810Z,92.35
2022-11-26T06:41:08.062Z,77.15
2022-11-26T06:43:35.948Z,87.53
2022-11-26T06:46:11.000Z,74.00
2022-11-26T06:48:39.710Z,69.95
2022-11-26T06:51:13.081Z,74.18
2022-11-26T06:53:40.799Z,71.63
2022-11-26T06:56:18.152Z,75.07
2022-11-26T06:58:48.060Z,88.43
2022-11-26T07:01:19.915Z,82.95
2022-11-26T07:03:47.411Z,97.15
2022-11-26T07:06:22.133Z,92.28
2022-11-26T07:08:51.292Z,91.37
2022-11-26T07:11:19.952Z,91.88
2022-11-26T07:13:47.504Z,101.75
2022-11-26T07:16:15.099Z,101.75
2022-11-26T07:18:43.041Z,102.95
2022-11-26T07:21:13.015Z,94.25
2022-11-26T07:23:41.280Z,100.68
2022-11-26T07:26:10.900Z,79.75
2022-11-26T07:28:38.416Z,70.30
2022-11-26T07:31:16.932Z,73.72
2022-11-26T07:33:46.707Z,70.70
2022-11-26T07:36:27.446Z,72.32
2022-11-26T07:39:00.084Z,71.65
2022-11-26T07:41:29.207Z,72.40
2022-11-26T07:43:56.745Z,86.55
2022-11-26T07:46:26.042Z,84.10
2022-11-26T07:48:55.951Z,99.35
2022-11-26T07:51:30.549Z,83.25
2022-11-26T07:54:04.327Z,93.47
2022-11-26T07:56:31.697Z,98.60
2022-11-26T07:58:58.856Z,99.13
2022-11-26T08:01:29.661Z,113.97
2022-11-26T08:03:59.693Z,109.07
2022-11-26T08:06:30.534Z,104.78
2022-11-26T08:09:02.114Z,103.28
2022-11-26T08:11:33.449Z,111.15
2022-11-26T08:14:06.177Z,103.25
2022-11-26T08:16:34.457Z,100.78
2022-11-26T08:19:10.952Z,94.00
2022-11-26T08:21:39.485Z,103.93
2022-11-26T08:24:13.701Z,98.97
2022-11-26T08:26:44.084Z,90.85
2022-11-26T08:29:13.691Z,89.20
2022-11-26T08:31:45.809Z,89.72
2022-11-26T08:34:16.603Z,74.53
2022-11-26T08:36:45.476Z,83.07
2022-11-26T08:39:18.097Z,75.85
2022-11-26T08:41:51.707Z,76.93
2022-11-26T08:44:20.499Z,73.03
2022-11-26T08:46:48.064Z,77.70
2022-11-26T08:49:16.794Z,73.10
2022-11-26T08:51:44.530Z,74.82
2022-11-26T08:54:11.928Z,80.55
2022-11-26T08:56:39.199Z,86.85
2022-11-26T08:59:06.494Z,84.85
2022-11-26T09:01:34.740Z,86.20
2022-11-26T09:04:04.595Z,85.20
2022-11-26T09:06:36.665Z,82.50
2022-11-26T09:09:15.458Z,86.82
2022-11-26T09:11:50.451Z,89.10
2022-11-26T09:14:24.734Z,80.73
2022-11-26T09:16:54.236Z,66.88
2022-11-26T09:19:22.366Z,73.60
2022-11-26T09:21:49.612Z,69.10
2022-11-26T09:24:17.862Z,78.82
2022-11-26T09:26:45.802Z,74.43
2022-11-26T09:29:17.459Z,66.30
2022-11-26T09:32:15.412Z,69.18
2022-11-26T09:34:33.590Z,64.53
2022-11-26T09:37:00.889Z,65.43
2022-11-26T09:39:28.483Z,61.22
2022-11-26T09:42:05.763Z,66.30
2022-11-26T09:45:10.240Z,64.25
2022-11-26T09:47:45.546Z,58.92
2022-11-26T09:50:15.552Z,62.80
2022-11-26T09:53:26.468Z,61.05
2022-11-26T09:55:56.719Z,60.58
2022-11-26T09:58:50.857Z,61.92
2022-11-26T10:01:23.217Z,59.63
2022-11-26T10:03:52.353Z,56.60
2022-11-26T10:07:01.756Z,62.70
2022-11-26T10:09:43.444Z,58.07
2022-11-26T10:13:19.485Z,61.60
2022-11-26T10:16:15.210Z,58.70
2022-11-26T10:19:27.637Z,62.20
2022-11-26T10:22:01.024Z,60.20
2022-11-26T10:24:42.408Z,56.25
2022-11-26T10:27:23.762Z,59.85
2022-11-26T10:30:13.330Z,58.67
2022-11-26T10:32:44.040Z,62.28
2022-11-26T10:35:22.789Z,64.03
2022-11-26T10:37:51.061Z,64.38
2022-11-26T10:40:44.753Z,67.97
2022-11-26T10:43:24.470Z,66.32
2022-11-26T10:45:55.769Z,67.85
2022-11-26T10:48:28.619Z,71.65
2022-11-26T10:51:23.815Z,69.20
2022-11-26T10:54:04.593Z,75.85
2022-11-26T10:56:46.184Z,72.93
2022-11-26T10:59:28.337Z,71.50
2022-11-26T11:02:02.710Z,74.63
2022-11-26T11:04:40.443Z,69.45
2022-11-26T11:07:38.059Z,75.60
2022-11-26T11:10:21.936Z,66.78
2022-11-26T11:13:12.244Z,65.97
2022-11-26T11:15:41.091Z,64.00
2022-11-26T11:18:20.193Z,73.35
2022-11-26T11:21:03.068Z,63.00
2022-11-26T11:24:07.074Z,65.28
2022-11-26T11:26:25.800Z,63.67
2022-11-26T11:28:55.454Z,61.10
2022-11-26T11:31:26.792Z,62.95
2022-11-26T11:34:20.078Z,62.30
2022-11-26T11:37:14.851Z,58.63
2022-11-26T11:39:43.731Z,59.95
2022-11-26T11:42:29.117Z,57.55
2022-11-26T11:44:58.212Z,62.75
2022-11-26T11:47:48.713Z,60.10
2022-11-26T11:50:42.560Z,61.05
2022-11-26T11:53:40.902Z,57.35
2022-11-26T11:56:49.948Z,56.85
2022-11-26T12:00:10.476Z,65.47
2022-11-26T12:03:30.579Z,59.30
2022-11-26T12:06:24.451Z,60.53
2022-11-26T12:09:16.256Z,59.80
2022-11-26T12:12:22.742Z,59.75
2022-11-26T12:15:06.769Z,54.85
2022-11-26T12:17:51.673Z,62.70
2022-11-26T12:21:05.736Z,52.65
2022-11-26T12:24:02.243Z,55.20
2022-11-26T12:26:55.330Z,55.63
2022-11-26T12:29:44.873Z,57.10
2022-11-26T12:32:19.125Z,51.53
2022-11-26T12:34:57.260Z,58.83
2022-11-26T12:37:36.942Z,56.55
2022-11-26T12:40:30.595Z,51.13
2022-11-26T12:44:02.892Z,52.38
2022-11-26T12:46:54.415Z,50.83
2022-11-26T12:49:35.659Z,52.97
2022-11-26T12:52:38.672Z,50.58
2022-11-26T12:55:43.314Z,54.03
2022-11-26T12:58:27.398Z,58.88
2022-11-26T13:00:55.569Z,51.50
2022-11-26T13:03:33.506Z,50.72
2022-11-26T13:06:15.801Z,54.70
2022-11-26T13:09:53.401Z,56.97
2022-11-26T13:12:36.241Z,52.10
2022-11-26T13:15:37.608Z,64.25
2022-11-26T13:18:12.931Z,53.63
2022-11-26T13:20:55.007Z,52.88
2022-11-26T13:24:07.674Z,52.92
2022-11-26T13:27:12.954Z,50.45
2022-11-26T13:30:13.914Z,49.15
2022-11-26T13:33:23.185Z,50.33
2022-11-26T13:36:29.172Z,44.05
2022-11-26T13:39:49.927Z,47.47
2022-11-26T13:42:41.202Z,54.15
2022-11-26T13:45:39.325Z,46.20
2022-11-26T13:48:24.616Z,42.78
2022-11-26T13:51:19.114Z,43.57
2022-11-26T13:54:29.670Z,40.33
2022-11-26T13:57:08.872Z,35.65
2022-11-26T13:59:36.756Z,34.80
2022-11-26T14:02:38.001Z,34.83
2022-11-26T14:05:13.877Z,38.47
2022-11-26T14:07:43.264Z,32.10
2022-11-26T14:10:41.416Z,32.30
2022-11-26T14:13:09.996Z,40.30
2022-11-26T14:15:42.879Z,36.05
2022-11-26T14:18:16.168Z,38.00
2022-11-26T14:21:01.203Z,36.72
2022-11-26T14:23:47.414Z,34.35
2022-11-26T14:26:39.004Z,42.63
2022-11-26T14:29:09.891Z,37.72
2022-11-26T14:31:58.460Z,37.30
2022-11-26T14:34:42.382Z,32.10
2022-11-26T14:37:22.323Z,33.20
2022-11-26T14:40:27.624Z,32.25
2022-11-26T14:43:22.202Z,33.53
2022-11-26T14:46:17.741Z,33.17
2022-11-26T14:48:48.851Z,35.20
2022-11-26T14:51:26.653Z,33.40
2022-11-26T14:53:55.352Z,35.60
2022-11-26T14:56:25.292Z,28.92
2022-11-26T14:59:00.447Z,26.52
2022-11-26T15:01:29.361Z,20.70
2022-11-26T15:04:07.028Z,23.10
2022-11-26T15:06:38.792Z,24.92
2022-11-26T15:09:27.024Z,19.08
2022-11-26T15:12:19.649Z,20.63
2022-11-26T15:14:55.129Z,26.27
2022-11-26T15:17:25.568Z,20.92
2022-11-26T15:19:54.885Z,21.10
2022-11-26T15:22:29.395Z,18.77
2022-11-26T15:24:57.613Z,21.30
2022-11-26T15:28:01.550Z,18.65
2022-11-26T15:30:32.283Z,21.88
2022-11-26T15:33:10.001Z,22.70
2022-11-26T15:35:39.820Z,21.02
2022-11-26T15:38:16.363Z,21.88
2022-11-26T15:40:56.796Z,20.52
2022-11-26T15:43:35.524Z,22.17
2022-11-26T15:46:30.871Z,21.77
2022-11-26T15:49:04.513Z,24.73
2022-11-26T15:52:04.675Z,20.95
2022-11-26T15:55:10.592Z,24.80
2022-11-26T15:57:35.626Z,22.65
2022-11-26T16:00:20.491Z,21.75
2022-11-26T16:02:47.742Z,27.08
2022-11-26T16:05:39.357Z,25.13
2022-11-26T16:08:32.830Z,30.23
2022-11-26T16:11:20.948Z,26.95
2022-11-26T16:13:48.288Z,32.53
2022-11-26T16:16:27.530Z,27.45
2022-11-26T16:19:01.716Z,27.80
2022-11-26T16:21:33.835Z,23.52
2022-11-26T16:24:19.798Z,24.90
2022-11-26T16:27:24.883Z,27.20
2022-11-26T16:29:52.591Z,24.45
2022-11-26T16:32:20.241Z,32.08
2022-11-26T16:34:47.409Z,25.70
2022-11-26T16:37:27.265Z,26.30
2022-11-26T16:40:20.142Z,27.40
2022-11-26T16:42:48.676Z,29.02
2022-11-26T16:45:16.724Z,30.98
2022-11-26T16:47:54.554Z,29.45
2022-11-26T16:50:27.563Z,27.85
2022-11-26T16:52:55.931Z,24.15
2022-11-26T16:55:26.679Z,32.03
2022-11-26T16:57:58.325Z,29.90
2022-11-26T17:00:27.230Z,31.95
2022-11-26T17:02:54.954Z,28.25
2022-11-26T17:05:24.539Z,27.17
2022-11-26T17:07:59.479Z,29.63
2022-11-26T17:10:29.830Z,29.63
2022-11-26T17:12:57.607Z,34.00
2022-11-26T17:15:24.947Z,32.50
2022-11-26T17:18:03.555Z,30.52
2022-11-26T17:20:31.236Z,33.05
2022-11-26T17:22:58.404Z,30.48
2022-11-26T17:25:25.732Z,27.80
2022-11-26T17:27:53.003Z,28.30
2022-11-26T17:30:24.050Z,27.30
2022-11-26T17:32:51.836Z,30.13
2022-11-26T17:35:19.506Z,26.15
2022-11-26T17:37:46.950Z,32.25
2022-11-26T17:40:23.753Z,31.08
2022-11-26T17:42:51.291Z,30.00
2022-11-26T17:45:19.572Z,33.97
2022-11-26T17:47:47.005Z,33.97
2022-11-26T17:50:28.928Z,35.88
2022-11-26T17:52:56.273Z,27.15
2022-11-26T17:55:26.808Z,33.15
2022-11-26T17:57:55.254Z,35.38
2022-11-26T18:00:31.181Z,40.45
2022-11-26T18:02:58.950Z,38.15
2022-11-26T18:05:26.312Z,29.48
2022-11-26T18:07:53.671Z,31.60
2022-11-26T18:10:23.279Z,32.35
2022-11-26T18:12:54.162Z,34.67
2022-11-26T18:15:25.835Z,37.03
2022-11-26T18:17:55.394Z,41.25
2022-11-26T18:20:28.758Z,41.38
2022-11-26T18:22:59.403Z,45.88
2022-11-26T18:25:28.490Z,42.50
2022-11-26T18:27:56.050Z,43.90
2022-11-26T18:30:24.642Z,47.00
2022-11-26T18:32:51.936Z,47.72
2022-11-26T18:35:19.279Z,42.08
2022-11-26T18:37:46.481Z,44.05
2022-11-26T18:40:17.723Z,44.53
2022-11-26T18:42:45.195Z,41.90
2022-11-26T18:45:15.619Z,42.35
2022-11-26T18:47:43.411Z,39.35
2022-11-26T18:50:11.483Z,45.80
2022-11-26T18:52:38.807Z,54.08
2022-11-26T18:55:08.583Z,55.50
2022-11-26T18:57:36.546Z,51.55
2022-11-26T19:00:06.852Z,47.85
2022-11-26T19:02:36.268Z,40.33
2022-11-26T19:05:04.681Z,40.47
2022-11-26T19:07:33.117Z,39.78
2022-11-26T19:10:00.414Z,43.38
2022-11-26T19:12:27.562Z,48.17
2022-11-26T19:14:54.810Z,47.58
2022-11-26T19:17:21.966Z,46.28
2022-11-26T19:19:49.110Z,56.63
2022-11-26T19:22:16.379Z,54.75
2022-11-26T19:24:43.635Z,55.28
2022-11-26T19:27:10.867Z,46.00
2022-11-26T19:29:38.330Z,43.95
2022-11-26T19:32:05.787Z,44.05
2022-11-26T19:34:33.033Z,40.85
2022-11-26T19:37:00.255Z,38.97
2022-11-26T19:39:27.658Z,45.17
2022-11-26T19:41:55.268Z,42.28
2022-11-26T19:44:22.636Z,40.20
2022-11-26T19:46:49.772Z,39.03
2022-11-26T19:49:17.065Z,38.25
2022-11-26T19:51:45.279Z,39.30
2022-11-26T19:54:12.496Z,33.45
2022-11-26T19:56:40.189Z,37.30
2022-11-26T19:59:07.352Z,41.55
2022-11-26T20:01:35.473Z,33.10
2022-11-26T20:04:07.423Z,38.83
2022-11-26T20:06:36.171Z,37.60
2022-11-26T20:09:09.321Z,34.58
2022-11-26T20:11:39.584Z,33.60
2022-11-26T20:14:10.980Z,29.63
2022-11-26T20:16:41.752Z,32.00
2022-11-26T20:19:11.260Z,35.58
2022-11-26T20:21:39.246Z,29.50
2022-11-26T20:24:17.739Z,31.48
2022-11-26T20:26:48.449Z,31.02
2022-11-26T20:29:17.459Z,34.42
2022-11-26T20:31:48.889Z,34.80
2022-11-26T20:34:26.245Z,33.65
2022-11-26T20:36:53.553Z,37.45
2022-11-26T20:39:23.481Z,40.50
2022-11-26T20:41:51.092Z,39.20
2022-11-26T20:44:18.572Z,40.45
2022-11-26T20:46:46.860Z,33.92
2022-11-26T20:49:15.966Z,36.33
2022-11-26T20:51:43.207Z,30.65
2022-11-26T20:54:10.372Z,34.05
2022-11-26T20:56:37.742Z,30.02
2022-11-26T20:59:04.993Z,31.13
2022-11-26T21:01:32.510Z,27.42
2022-11-26T21:04:00.098Z,32.53
2022-11-26T21:06:30.367Z,26.58
2022-11-26T21:09:02.215Z,28.88
2022-11-26T21:11:30.406Z,31.48
2022-11-26T21:14:01.270Z,25.80
2022-11-26T21:16:29.181Z,28.20
2022-11-26T21:18:57.553Z,24.40
2022-11-26T21:21:27.512Z,30.40
2022-11-26T21:23:56.841Z,22.40
2022-11-26T21:26:26.666Z,28.25
2022-11-26T21:28:57.848Z,24.65
2022-11-26T21:31:27.441Z,24.83
2022-11-26T21:34:02.239Z,24.33
2022-11-26T21:36:33.179Z,24.27
2022-11-26T21:39:00.896Z,24.50
2022-11-26T21:41:28.847Z,28.48
2022-11-26T21:43:56.061Z,25.42
2022-11-26T21:46:27.023Z,23.05
2022-11-26T21:48:56.538Z,22.92
2022-11-26T21:51:27.951Z,22.83
2022-11-26T21:53:57.709Z,22.38
2022-11-26T21:56:29.904Z,19.17
2022-11-26T21:58:59.830Z,20.52
2022-11-26T22:01:37.839Z,18.90
2022-11-26T22:04:14.715Z,20.27
2022-11-26T22:06:43.957Z,19.58
2022-11-26T22:09:12.653Z,17.98
2022-11-26T22:11:43.910Z,18.27
2022-11-26T22:14:15.861Z,23.38
2022-11-26T22:16:43.321Z,21.33
2022-11-26T22:19:10.596Z,17.73
2022-11-26T22:21:42.008Z,23.13
2022-11-26T22:24:15.887Z,15.02
2022-11-26T22:26:44.796Z,19.20
2022-11-26T22:29:18.517Z,16.63
2022-11-26T22:31:48.141Z,18.20
2022-11-26T22:34:21.949Z,18.50
2022-11-26T22:36:49.346Z,22.33
2022-11-26T22:39:18.863Z,15.65
2022-11-26T22:41:48.041Z,17.25
2022-11-26T22:44:16.038Z,17.67
2022-11-26T22:46:43.821Z,18.38
2022-11-26T22:49:18.749Z,16.40
2022-11-26T22:51:47.327Z,17.52
2022-11-26T22:54:16.440Z,20.55
2022-11-26T22:56:43.994Z,16.98
2022-11-26T22:59:14.466Z,16.65
2022-11-26T23:01:42.111Z,16.25
2022-11-26T23:04:11.014Z,16.13
2022-11-26T23:06:39.413Z,15.43
2022-11-26T23:09:09.017Z,16.15
2022-11-26T23:11:40.426Z,16.60
2022-11-26T23:14:09.679Z,24.05
2022-11-26T23:16:40.359Z,17.13
2022-11-26T23:19:08.256Z,16.45
2022-11-26T23:21:39.942Z,17.95
2022-11-26T23:24:07.888Z,15.75
2022-11-26T23:26:38.475Z,15.65
2022-11-26T23:29:07.228Z,15.25
2022-11-26T23:31:42.155Z,15.02
2022-11-26T23:34:10.404Z,17.33
2022-11-26T23:36:38.682Z,15.50
2022-11-26T23:39:11.291Z,15.50
2022-11-26T23:41:38.525Z,11.82
2022-11-26T23:44:05.841Z,17.38
2022-11-26T23:46:35.386Z,15.55
2022-11-26T23:49:04.075Z,14.25
2022-11-26T23:51:33.099Z,13.00
2022-11-26T23:54:00.758Z,13.05
2022-11-26T23:56:34.129Z,13.77
2022-11-26T23:59:04.688Z,16.58
